Time;durP1;ratioP1;P1;durP2;ratioP2;P2;SDS_P1;SDS_P2;PMS_P1;PMS_P2;Temp;Humidity;BMP_temperature;BMP_pressure;BME280_temperature;BME280_humidity;BME280_pressure;Samples;Min_cycle;Max_cycle;Signal;HPM_P1;HPM_P2
2022/11/27 00:01:43;;;;;;;;;;;;;;;1.73;100.00;98492.17;107826;1261;59762;-70
2022/11/27 00:04:13;;;;;;;55.30;34.60;;;;;;;1.69;100.00;98493.64;108000;1266;71284;-70
2022/11/27 00:06:43;;;;;;;57.20;36.70;;;;;;;1.65;100.00;98493.02;107765;1262;68534;-71
2022/11/27 00:09:15;;;;;;;60.40;38.90;;;;;;;1.64;100.00;98494.25;107977;1266;68362;-70
2022/11/27 00:11:45;;;;;;;56.30;36.70;;;;;;;1.63;100.00;98494.94;107810;1266;59759;-70
2022/11/27 00:14:15;;;;;;;;;;;;;;;1.62;100.00;98497.37;107925;1265;59732;-71
2022/11/27 00:16:45;;;;;;;51.30;32.20;;;;;;;1.62;100.00;98493.25;107919;1261;71989;-70
2022/11/27 00:19:15;;;;;;;50.90;35.10;;;;;;;1.62;100.00;98492.38;107662;1262;69853;-70
2022/11/27 00:21:45;;;;;;;54.90;35.80;;;;;;;1.63;100.00;98490.14;107771;1261;69265;-70
2022/11/27 00:24:16;;;;;;;49.50;32.20;;;;;;;1.63;100.00;98486.70;107936;1266;59774;-69
2022/11/27 00:26:48;;;;;;;62.00;42.50;;;;;;;1.63;100.00;98492.55;107942;1261;59751;-70
2022/11/27 00:29:18;;;;;;;65.80;40.80;;;;;;;1.63;100.00;98489.30;107952;1263;71183;-70
2022/11/27 00:31:48;;;;;;;64.20;44.10;;;;;;;1.63;100.00;98491.70;107984;1266;69107;-70
2022/11/27 00:34:18;;;;;;;70.90;45.30;;;;;;;1.63;100.00;98492.20;107913;1263;69707;-70
2022/11/27 00:36:48;;;;;;;73.40;47.40;;;;;;;1.62;100.00;98493.92;107750;1266;59693;-70
2022/11/27 00:39:18;;;;;;;70.30;46.50;;;;;;;1.63;100.00;98494.96;107948;1262;59711;-70
2022/11/27 00:41:51;;;;;;;77.80;51.40;;;;;;;1.62;100.00;98493.77;107825;1263;71630;-70
2022/11/27 00:44:22;;;;;;;70.30;44.10;;;;;;;1.62;100.00;98491.17;107906;1262;69212;-70
2022/11/27 00:46:52;;;;;;;63.30;41.70;;;;;;;1.62;100.00;98486.88;107874;1266;69670;-70
2022/11/27 00:49:21;;;;;;;64.10;40.30;;;;;;;1.62;100.00;98489.13;107865;1263;59682;-70
2022/11/27 00:51:51;;;;;;;57.00;38.40;;;;;;;1.60;100.00;98487.44;107952;1262;59667;-69
2022/11/27 00:54:21;;;;;;;;;;;;;;;1.60;100.00;98492.44;107872;1262;70604;-69
2022/11/27 00:56:51;;;;;;;55.00;36.10;;;;;;;1.58;100.00;98492.98;107867;1266;68430;-70
2022/11/27 00:59:21;;;;;;;50.20;33.30;;;;;;;1.58;100.00;98491.61;107820;1263;69242;-70
2022/11/27 01:01:51;;;;;;;56.00;35.80;;;;;;;1.56;100.00;98485.46;107920;1266;59659;-70
2022/11/27 01:04:21;;;;;;;55.80;36.30;;;;;;;1.51;100.00;98482.10;107893;1266;59751;-71
2022/11/27 01:06:51;;;;;;;58.00;38.70;;;;;;;1.49;100.00;98480.98;107789;1266;70858;-70
2022/11/27 01:09:20;;;;;;;65.90;42.20;;;;;;;1.48;100.00;98479.27;108340;1261;68842;-70
2022/11/27 01:11:52;;;;;;;63.30;39.60;;;;;;;1.48;100.00;98478.40;107733;1262;68444;-70
2022/11/27 01:14:22;;;;;;;61.30;38.60;;;;;;;1.48;100.00;98476.52;107977;1266;59704;-70
2022/11/27 01:16:52;;;;;;;54.30;35.30;;;;;;;1.47;100.00;98479.61;107923;1266;59697;-70
2022/11/27 01:19:23;;;;;;;55.10;33.80;;;;;;;1.48;100.00;98483.90;107863;1266;70443;-70
2022/11/27 01:21:53;;;;;;;60.80;36.90;;;;;;;1.50;100.00;98482.66;107859;1266;68851;-70
2022/11/27 01:24:23;;;;;;;50.50;32.40;;;;;;;1.49;100.00;98482.85;107847;1266;67420;-69
2022/11/27 01:26:53;;;;;;;48.00;29.50;;;;;;;1.48;100.00;98476.86;107817;1266;59696;-70
2022/11/27 01:29:24;;;;;;;58.00;37.80;;;;;;;1.48;100.00;98474.97;107951;1266;59749;-70
2022/11/27 01:31:54;;;;;;;59.20;36.30;;;;;;;1.50;100.00;98473.38;107874;1266;71215;-70
2022/11/27 01:34:24;;;;;;;;;;;;;;;1.48;100.00;98473.42;107760;1267;69188;-69
2022/11/27 01:36:55;;;;;;;44.70;28.50;;;;;;;1.45;100.00;98474.17;107878;1261;67388;-70
2022/11/27 01:39:25;;;;;;;40.00;24.60;;;;;;;1.43;100.00;98472.85;108004;1262;59728;-70
2022/11/27 01:41:54;;;;;;;40.70;26.80;;;;;;;1.39;100.00;98474.27;107865;1263;59672;-70
2022/11/27 01:44:25;;;;;;;46.60;30.30;;;;;;;1.37;100.00;98470.55;107909;1266;71211;-70
2022/11/27 01:47:06;;;;;;;;;;;;;;;1.34;100.00;98469.40;107812;1266;68483;-69
2022/11/27 01:49:39;;;;;;;46.10;28.40;;;;;;;1.33;100.00;98469.77;107772;1263;69560;-70
2022/11/27 01:52:21;;;;;;;46.30;30.30;;;;;;;1.30;100.00;98468.11;107783;1262;59728;-70
2022/11/27 01:55:01;;;;;;;47.60;30.90;;;;;;;1.30;100.00;98470.15;107847;1261;59671;-69
2022/11/27 01:57:39;;;;;;;35.90;23.30;;;;;;;1.30;100.00;98469.83;107909;1261;71452;-70
2022/11/27 02:00:13;;;;;;;38.40;24.30;;;;;;;1.30;100.00;98470.50;107775;1261;68448;-68
2022/11/27 02:02:44;;;;;;;44.30;29.00;;;;;;;1.33;100.00;98476.45;107828;1263;69529;-69
2022/11/27 02:05:18;;;;;;;56.50;33.40;;;;;;;1.31;100.00;98474.60;107781;1266;60130;-69
2022/11/27 02:07:50;;;;;;;46.70;28.90;;;;;;;1.28;100.00;98471.03;107764;1262;59672;-69
2022/11/27 02:10:20;;;;;;;44.30;26.10;;;;;;;1.28;100.00;98470.88;107823;1262;70485;-69
2022/11/27 02:13:10;;;;;;;46.80;30.00;;;;;;;1.28;100.00;98471.04;107757;1263;69328;-70
2022/11/27 02:15:57;;;;;;;43.70;28.60;;;;;;;1.28;100.00;98471.21;108488;1261;69305;-70
2022/11/27 02:18:52;;;;;;;46.00;28.80;;;;;;;1.28;100.00;98477.21;107873;1265;59744;-70
2022/11/27 02:21:42;;;;;;;45.00;28.90;;;;;;;1.30;100.00;98479.95;107903;1262;59792;-69
2022/11/27 02:24:18;;;;;;;47.10;30.00;;;;;;;1.31;100.00;98482.34;107956;1261;71374;-69
2022/11/27 02:26:49;;;;;;;50.30;31.10;;;;;;;1.30;100.00;98483.74;107890;1262;69157;-70
2022/11/27 02:29:27;;;;;;;59.20;36.90;;;;;;;1.29;100.00;98482.02;107765;1262;69399;-70
2022/11/27 02:32:15;;;;;;;54.90;35.80;;;;;;;1.27;100.00;98489.96;108049;1262;59752;-70
2022/11/27 02:35:28;;;;;;;55.30;34.60;;;;;;;1.23;100.00;98487.80;107764;1266;59652;-70
2022/11/27 02:38:06;;;;;;;53.90;32.90;;;;;;;1.18;100.00;98486.17;107488;1272;71243;-68
2022/11/27 02:40:58;;;;;;;49.60;30.90;;;;;;;1.16;100.00;98482.95;107901;1262;69206;-68
2022/11/27 02:43:42;;;;;;;52.30;30.90;;;;;;;1.15;100.00;98487.61;107919;1266;69248;-68
2022/11/27 02:46:15;;;;;;;47.80;29.60;;;;;;;1.14;100.00;98494.67;107862;1262;59724;-69
2022/11/27 02:48:54;;;;;;;49.00;32.00;;;;;;;1.13;100.00;98495.70;107741;1266;59648;-69
2022/11/27 02:51:34;;;;;;;45.20;29.00;;;;;;;1.13;100.00;98500.70;107964;1261;70437;-69
2022/11/27 02:54:08;;;;;;;56.60;32.50;;;;;;;1.14;100.00;98498.94;107702;1262;69149;-69
2022/11/27 02:56:41;;;;;;;44.60;26.80;;;;;;;1.16;100.00;98499.79;107654;1266;69189;-69
2022/11/27 02:59:15;;;;;;;44.90;28.70;;;;;;;1.17;100.00;98498.55;107662;1262;59757;-69
2022/11/27 03:01:50;;;;;;;53.80;31.40;;;;;;;1.19;100.00;98502.11;107682;1261;59674;-69
2022/11/27 03:04:32;;;;;;;59.80;34.90;;;;;;;1.20;100.00;98498.49;107668;1266;70643;-69
2022/11/27 03:07:12;;;;;;;45.50;27.20;;;;;;;1.22;100.00;98500.71;107694;1262;69172;-69
2022/11/27 03:09:47;;;;;;;50.50;30.30;;;;;;;1.23;100.00;98502.73;107653;1263;69334;-69
2022/11/27 03:12:18;;;;;;;47.50;29.80;;;;;;;1.24;100.00;98495.51;107706;1266;59679;-69
2022/11/27 03:14:47;;;;;;;39.40;26.60;;;;;;;1.23;100.00;98493.45;107715;1262;59697;-69
2022/11/27 03:17:46;;;;;;;47.00;29.40;;;;;;;1.24;100.00;98492.42;107675;1265;70570;-69
2022/11/27 03:20:25;;;;;;;46.30;28.70;;;;;;;1.23;100.00;98496.55;107694;1262;67724;-69
2022/11/27 03:22:55;;;;;;;55.90;32.50;;;;;;;1.24;100.00;98492.58;108245;1266;68548;-69
2022/11/27 03:25:27;;;;;;;43.00;26.80;;;;;;;1.25;100.00;98488.11;108043;1265;59798;-69
2022/11/27 03:28:01;;;;;;;54.20;33.70;;;;;;;1.24;100.00;98482.97;107975;1266;59772;-69
2022/11/27 03:30:32;;;;;;;62.40;37.20;;;;;;;1.22;100.00;98477.52;107944;1266;70596;-69
2022/11/27 03:33:02;;;;;;;44.70;28.90;;;;;;;1.16;100.00;98482.26;107899;1266;69245;-69
2022/11/27 03:35:34;;;;;;;50.90;31.50;;;;;;;1.11;100.00;98486.64;107958;1263;69424;-69
2022/11/27 03:38:05;;;;;;;56.20;33.90;;;;;;;1.07;100.00;98484.48;107737;1262;59665;-69
2022/11/27 03:41:04;;;;;;;52.10;29.70;;;;;;;1.05;100.00;98479.20;107900;1261;59690;-69
2022/11/27 03:43:46;;;;;;;44.20;26.80;;;;;;;1.04;100.00;98479.39;107802;1266;70306;-69
2022/11/27 03:46:42;;;;;;;49.90;31.10;;;;;;;1.02;100.00;98482.34;107814;1263;69076;-69
2022/11/27 03:49:44;;;;;;;52.50;31.80;;;;;;;1.01;100.00;98481.84;107847;1261;69318;-69
2022/11/27 03:52:20;;;;;;;51.90;33.70;;;;;;;0.99;100.00;98483.23;107775;1266;59744;-69
2022/11/27 03:55:11;;;;;;;52.50;30.80;;;;;;;0.98;100.00;98488.06;107827;1262;59623;-69
2022/11/27 03:57:45;;;;;;;53.40;32.00;;;;;;;0.99;100.00;98496.14;107721;1266;71400;-69
2022/11/27 04:00:16;;;;;;;52.90;35.00;;;;;;;0.96;100.00;98496.68;107877;1261;69755;-69
2022/11/27 04:02:50;;;;;;;61.80;37.10;;;;;;;0.94;100.00;98495.86;107940;1266;69874;-69
2022/11/27 04:05:20;;;;;;;57.00;35.00;;;;;;;0.92;100.00;98497.95;107677;1266;59704;-69
2022/11/27 04:07:50;;;;;;;53.40;33.70;;;;;;;0.92;100.00;98498.29;107693;1266;59668;-69
2022/11/27 04:10:21;;;;;;;66.90;39.70;;;;;;;0.92;100.00;98491.95;107710;1262;70255;-69
2022/11/27 04:12:51;;;;;;;59.20;35.10;;;;;;;0.90;100.00;98495.75;107683;1263;69292;-69
2022/11/27 04:15:22;;;;;;;65.70;37.70;;;;;;;0.89;100.00;98499.21;107673;1262;69548;-69
2022/11/27 04:17:53;;;;;;;71.50;37.70;;;;;;;0.87;100.00;98500.79;107883;1261;59692;-69
2022/11/27 04:20:22;;;;;;;58.50;35.10;;;;;;;0.85;100.00;98499.80;107773;1266;59688;-69
2022/11/27 04:22:52;;;;;;;56.80;33.00;;;;;;;0.86;100.00;98499.78;107767;1266;71400;-69
2022/11/27 04:25:22;;;;;;;63.00;34.70;;;;;;;0.87;100.00;98502.50;107715;1266;67741;-69
2022/11/27 04:27:52;;;;;;;;;;;;;;;0.89;100.00;98502.13;107644;1266;69539;-69
2022/11/27 04:30:22;;;;;;;64.20;35.20;;;;;;;0.91;100.00;98498.98;108095;1261;59648;-70
2022/11/27 04:32:52;;;;;;;68.50;37.00;;;;;;;0.95;100.00;98499.96;108329;1262;59751;-69
2022/11/27 04:35:23;;;;;;;61.30;37.00;;;;;;;0.99;100.00;98499.55;107775;1262;71354;-69
2022/11/27 04:37:53;;;;;;;;;;;;;;;1.02;100.00;98490.75;107940;1261;69093;-69
2022/11/27 04:40:23;;;;;;;47.10;29.70;;;;;;;1.05;100.00;98489.67;107814;1266;69198;-69
2022/11/27 04:42:52;;;;;;;54.80;34.60;;;;;;;1.05;100.00;98493.27;107909;1261;59784;-69
2022/11/27 04:45:23;;;;;;;55.80;33.70;;;;;;;1.04;100.00;98494.15;107934;1262;59668;-69
2022/11/27 04:47:52;;;;;;;51.50;32.20;;;;;;;1.03;100.00;98494.52;107826;1266;70620;-69
2022/11/27 04:50:22;;;;;;;55.00;32.70;;;;;;;1.03;100.00;98501.39;107900;1266;69726;-69
2022/11/27 04:52:52;;;;;;;58.70;35.50;;;;;;;1.01;100.00;98501.40;107871;1266;69864;-69
2022/11/27 04:55:22;;;;;;;52.40;33.40;;;;;;;1.00;100.00;98500.57;107927;1262;59718;-69
2022/11/27 04:57:52;;;;;;;;;;;;;;;0.98;100.00;98499.73;107818;1266;59643;-69
2022/11/27 05:00:22;;;;;;;46.20;28.10;;;;;;;0.97;100.00;98501.98;107828;1261;71200;-69
2022/11/27 05:02:51;;;;;;;;;;;;;;;0.96;100.00;98504.74;107803;1266;69174;-69
2022/11/27 05:05:22;;;;;;;47.00;29.10;;;;;;;0.94;100.00;98502.73;107752;1261;69128;-69
2022/11/27 05:07:51;;;;;;;57.80;35.60;;;;;;;0.93;100.00;98502.25;107893;1266;59756;-69
2022/11/27 05:10:21;;;;;;;58.50;36.40;;;;;;;0.90;100.00;98499.53;107912;1266;59762;-69
2022/11/27 05:12:51;;;;;;;64.90;37.60;;;;;;;0.88;100.00;98501.80;107910;1266;71997;-69
2022/11/27 05:15:22;;;;;;;58.70;34.70;;;;;;;0.84;100.00;98496.55;107934;1266;69234;-69
2022/11/27 05:17:52;;;;;;;52.20;30.60;;;;;;;0.79;100.00;98504.17;107900;1266;67577;-69
2022/11/27 05:20:21;;;;;;;49.80;32.20;;;;;;;0.78;100.00;98503.50;107881;1266;59772;-69
2022/11/27 05:22:51;;;;;;;59.90;34.90;;;;;;;0.78;100.00;98503.52;107940;1262;59715;-69
2022/11/27 05:25:20;;;;;;;58.60;34.80;;;;;;;0.78;100.00;98498.88;107768;1266;71240;-69
2022/11/27 05:27:50;;;;;;;55.60;34.40;;;;;;;0.77;100.00;98499.06;107913;1266;69840;-70
2022/11/27 05:30:19;;;;;;;51.80;31.90;;;;;;;0.76;100.00;98502.35;107880;1261;69377;-69
2022/11/27 05:32:49;;;;;;;49.90;30.80;;;;;;;0.75;100.00;98505.11;107825;1266;59721;-69
2022/11/27 05:35:18;;;;;;;52.30;31.20;;;;;;;0.75;100.00;98502.71;107815;1262;59703;-69
2022/11/27 05:37:47;;;;;;;59.10;33.00;;;;;;;0.75;100.00;98506.15;107867;1263;70589;-69
2022/11/27 05:40:17;;;;;;;56.40;33.90;;;;;;;0.72;100.00;98511.83;108361;1262;69848;-69
2022/11/27 05:42:46;;;;;;;54.30;33.60;;;;;;;0.70;100.00;98513.42;107874;1261;69243;-69
2022/11/27 05:45:16;;;;;;;48.70;31.40;;;;;;;0.69;100.00;98513.95;107954;1266;59765;-69
2022/11/27 05:47:45;;;;;;;56.50;34.00;;;;;;;0.68;100.00;98511.39;107809;1266;59776;-69
2022/11/27 05:50:15;;;;;;;54.30;32.60;;;;;;;0.66;100.00;98510.58;107712;1262;70598;-69
2022/11/27 05:52:44;;;;;;;62.00;33.40;;;;;;;0.66;100.00;98505.61;107874;1261;69742;-69
2022/11/27 05:55:14;;;;;;;56.50;35.70;;;;;;;0.66;100.00;98508.52;107797;1265;69863;-69
2022/11/27 05:57:43;;;;;;;56.40;32.80;;;;;;;0.67;100.00;98512.11;107903;1266;59649;-69
2022/11/27 06:00:14;;;;;;;56.00;32.30;;;;;;;0.67;100.00;98510.71;107702;1261;59750;-69
2022/11/27 06:02:42;;;;;;;61.50;36.70;;;;;;;0.69;100.00;98506.05;107805;1265;71329;-69
2022/11/27 06:05:12;;;;;;;63.70;37.20;;;;;;;0.69;100.00;98505.89;107765;1262;68439;-68
2022/11/27 06:07:40;;;;;;;56.10;32.60;;;;;;;0.69;100.00;98506.91;107657;1266;68291;-68
2022/11/27 06:10:10;;;;;;;45.00;28.10;;;;;;;0.70;100.00;98506.41;107659;1266;59756;-69
2022/11/27 06:12:39;;;;;;;65.60;38.00;;;;;;;0.72;100.00;98508.08;107677;1262;59725;-69
2022/11/27 06:15:08;;;;;;;45.50;28.80;;;;;;;0.72;100.00;98510.98;107669;1262;72094;-69
2022/11/27 06:17:37;;;;;;;51.70;31.70;;;;;;;0.74;100.00;98513.88;107960;1262;69190;-69
2022/11/27 06:20:07;;;;;;;58.60;36.10;;;;;;;0.76;100.00;98512.82;107879;1266;69194;-68
2022/11/27 06:22:36;;;;;;;82.00;44.70;;;;;;;0.77;100.00;98516.23;107745;1266;59692;-69
2022/11/27 06:25:05;;;;;;;75.10;45.60;;;;;;;0.78;100.00;98519.81;107692;1262;59768;-69
2022/11/27 06:27:35;;;;;;;79.40;45.60;;;;;;;0.80;100.00;98521.34;107855;1262;69599;-68
2022/11/27 06:30:04;;;;;;;68.60;41.20;;;;;;;0.81;100.00;98524.73;107728;1262;68668;-69
2022/11/27 06:32:33;;;;;;;71.10;43.40;;;;;;;0.82;100.00;98526.45;107815;1262;70194;-69
2022/11/27 06:35:03;;;;;;;78.20;47.10;;;;;;;0.84;100.00;98533.27;107787;1265;59677;-68
2022/11/27 06:37:32;;;;;;;87.00;50.50;;;;;;;0.87;100.00;98538.71;107924;1266;59655;-69
2022/11/27 06:40:01;;;;;;;70.50;43.90;;;;;;;0.90;100.00;98535.06;107808;1262;71955;-69
2022/11/27 06:42:30;;;;;;;81.50;49.30;;;;;;;0.94;100.00;98531.05;107719;1262;69828;-69
2022/11/27 06:44:59;;;;;;;88.60;53.90;;;;;;;0.98;100.00;98535.95;107743;1262;69988;-71
2022/11/27 06:47:29;;;;;;;88.20;53.30;;;;;;;1.03;100.00;98537.27;108536;1266;58944;-69
2022/11/27 06:49:58;;;;;;;90.70;54.60;;;;;;;1.07;100.00;98533.25;107921;1262;59713;-69
2022/11/27 06:52:27;;;;;;;94.00;57.30;;;;;;;1.12;100.00;98529.88;107956;1266;70562;-69
2022/11/27 06:54:55;;;;;;;86.10;52.90;;;;;;;1.18;100.00;98531.00;107928;1266;69164;-69
2022/11/27 06:57:25;;;;;;;89.60;53.90;;;;;;;1.25;100.00;98532.42;107868;1266;69877;-69
2022/11/27 06:59:53;;;;;;;87.50;52.60;;;;;;;1.31;100.00;98531.96;107884;1262;59768;-69
2022/11/27 07:02:22;;;;;;;76.20;49.40;;;;;;;1.36;100.00;98530.33;107912;1261;59719;-69
2022/11/27 07:04:51;;;;;;;65.20;41.70;;;;;;;1.42;100.00;98525.59;107886;1266;71640;-69
2022/11/27 07:07:19;;;;;;;79.70;49.70;;;;;;;1.48;100.00;98522.05;107850;1261;68403;-69
2022/11/27 07:09:48;;;;;;;62.20;40.60;;;;;;;1.52;100.00;98523.16;107823;1263;69771;-68
2022/11/27 07:12:17;;;;;;;57.60;38.80;;;;;;;1.57;100.00;98525.48;107739;1266;59717;-69
2022/11/27 07:14:46;;;;;;;62.10;42.80;;;;;;;1.62;100.00;98530.02;107927;1266;59714;-69
2022/11/27 07:17:15;;;;;;;59.70;38.60;;;;;;;1.67;100.00;98529.58;107956;1266;70234;-69
2022/11/27 07:19:43;;;;;;;64.20;42.50;;;;;;;1.74;100.00;98527.38;107681;1262;67731;-69
2022/11/27 07:22:12;;;;;;;71.00;44.20;;;;;;;1.79;100.00;98526.95;107945;1262;69991;-69
2022/11/27 07:24:41;;;;;;;69.90;44.70;;;;;;;1.85;100.00;98525.95;107757;1266;59746;-69
2022/11/27 07:27:10;;;;;;;78.30;51.70;;;;;;;1.88;100.00;98525.02;107743;1266;59751;-70
2022/11/27 07:29:39;;;;;;;69.00;43.20;;;;;;;1.91;100.00;98527.73;107676;1266;71594;-69
2022/11/27 07:32:08;;;;;;;76.40;48.00;;;;;;;1.94;100.00;98527.67;107756;1261;69888;-69
2022/11/27 07:34:36;;;;;;;74.90;48.50;;;;;;;1.99;100.00;98528.95;107784;1266;69280;-70
2022/11/27 07:37:05;;;;;;;73.50;44.50;;;;;;;2.04;100.00;98525.74;107755;1266;59750;-70
2022/11/27 07:39:34;;;;;;;55.30;33.20;;;;;;;2.09;100.00;98528.73;107724;1261;59693;-69
2022/11/27 07:42:23;;;;;;;53.00;33.50;;;;;;;2.14;100.00;98526.39;107873;1266;71228;-70
2022/11/27 07:45:08;;;;;;;57.10;35.20;;;;;;;2.20;100.00;98523.34;107841;1262;69551;-69
2022/11/27 07:47:37;;;;;;;56.30;36.60;;;;;;;2.24;100.00;98522.74;107776;1266;69908;-69
2022/11/27 07:50:07;;;;;;;50.40;30.80;;;;;;;2.33;100.00;98521.34;107724;1266;59674;-70
2022/11/27 07:52:37;;;;;;;53.80;34.20;;;;;;;2.41;100.00;98525.98;108408;1266;59618;-70
2022/11/27 07:55:09;;;;;;;49.40;30.60;;;;;;;2.49;100.00;98528.90;108116;1263;71599;-71
2022/11/27 07:57:38;;;;;;;54.40;35.40;;;;;;;2.57;100.00;98526.98;107980;1266;69707;-69
2022/11/27 08:00:09;;;;;;;54.80;35.70;;;;;;;2.63;100.00;98530.14;107848;1261;70269;-69
2022/11/27 08:02:37;;;;;;;50.20;30.70;;;;;;;2.68;100.00;98529.67;107823;1266;59741;-69
2022/11/27 08:05:06;;;;;;;53.70;35.00;;;;;;;2.72;100.00;98530.25;107812;1261;59759;-69
2022/11/27 08:07:40;;;;;;;56.30;35.40;;;;;;;2.77;100.00;98530.15;107914;1265;70687;-69
2022/11/27 08:10:09;;;;;;;55.10;36.50;;;;;;;2.82;100.00;98528.46;107962;1261;69571;-69
2022/11/27 08:12:38;;;;;;;54.20;36.90;;;;;;;2.87;100.00;98531.45;107740;1266;68334;-69
2022/11/27 08:15:08;;;;;;;52.30;34.50;;;;;;;2.90;99.67;98532.92;107653;1266;59754;-70
2022/11/27 08:17:38;;;;;;;57.40;37.90;;;;;;;2.97;99.55;98530.17;107664;1266;59789;-69
2022/11/27 08:20:07;;;;;;;;;;;;;;;3.05;99.43;98528.25;107704;1266;71300;-69
2022/11/27 08:22:36;;;;;;;52.10;34.40;;;;;;;3.11;99.60;98530.20;107718;1261;69248;-69
2022/11/27 08:25:05;;;;;;;46.50;31.90;;;;;;;3.18;99.33;98530.69;107474;1266;669550;-70
2022/11/27 08:27:35;;;;;;;56.50;34.80;;;;;;;3.26;98.22;98526.70;107894;1266;60061;-69
2022/11/27 08:30:05;;;;;;;57.50;37.00;;;;;;;3.29;97.63;98523.34;107778;1262;59710;-69
2022/11/27 08:32:38;;;;;;;49.00;29.90;;;;;;;3.33;96.71;98517.22;107865;1260;70783;-70
2022/11/27 08:35:08;;;;;;;48.20;31.40;;;;;;;3.34;95.74;98518.23;107900;1262;69206;-70
2022/11/27 08:37:37;;;;;;;;;;;;;;;3.38;95.79;98521.05;107801;1262;68281;-70
2022/11/27 08:40:06;;;;;;;42.40;26.20;;;;;;;3.50;96.64;98517.27;107860;1266;59725;-70
2022/11/27 08:42:35;;;;;;;51.20;33.10;;;;;;;3.63;97.03;98517.45;107740;1266;60096;-69
2022/11/27 08:45:04;;;;;;;55.80;34.30;;;;;;;3.69;96.45;98515.89;107727;1266;71299;-70
2022/11/27 08:47:33;;;;;;;60.80;37.80;;;;;;;3.70;95.17;98518.96;107788;1266;69174;-69
2022/11/27 08:50:02;;;;;;;63.70;39.30;;;;;;;3.77;94.73;98512.56;107748;1266;69957;-70
2022/11/27 08:52:31;;;;;;;57.30;35.60;;;;;;;3.79;94.00;98513.54;107862;1266;59785;-69
2022/11/27 08:55:00;;;;;;;46.40;30.50;;;;;;;3.72;92.83;98515.63;107896;1264;59665;-70
2022/11/27 08:57:29;;;;;;;51.70;33.10;;;;;;;3.79;91.83;98513.88;108635;1266;70854;-70
2022/11/27 08:59:58;;;;;;;49.20;32.30;;;;;;;3.93;92.18;98516.09;107755;1262;67558;-70
2022/11/27 09:02:27;;;;;;;47.40;32.20;;;;;;;4.01;92.73;98521.55;107934;1266;69913;-70
2022/11/27 09:04:55;;;;;;;52.20;34.70;;;;;;;4.10;92.53;98522.17;107839;1266;59710;-70
2022/11/27 09:07:24;;;;;;;53.50;35.10;;;;;;;4.06;90.44;98514.52;107887;1266;59683;-70
2022/11/27 09:09:53;;;;;;;45.60;30.50;;;;;;;4.18;91.44;98512.27;107827;1263;71387;-70
2022/11/27 09:12:22;;;;;;;46.80;31.10;;;;;;;4.25;91.31;98511.03;107827;1262;69234;-69
2022/11/27 09:14:50;;;;;;;50.00;33.30;;;;;;;4.45;91.61;98514.70;107799;1262;69767;-69
2022/11/27 09:17:19;;;;;;;55.60;38.00;;;;;;;4.54;88.62;98512.02;107837;1265;59768;-69
2022/11/27 09:19:48;;;;;;;42.60;29.70;;;;;;;4.60;88.49;98507.70;107802;1262;59701;-70
2022/11/27 09:22:17;;;;;;;45.70;30.20;;;;;;;4.68;89.37;98505.22;107969;1261;71384;-70
2022/11/27 09:24:46;;;;;;;44.80;29.20;;;;;;;4.75;88.82;98505.48;107782;1266;69666;-70
2022/11/27 09:27:15;;;;;;;49.00;31.60;;;;;;;4.85;88.08;98502.75;107881;1266;68752;-70
2022/11/27 09:29:43;;;;;;;43.80;28.80;;;;;;;4.91;86.34;98498.41;107711;1266;59807;-70
2022/11/27 09:32:12;;;;;;;42.00;28.10;;;;;;;5.04;86.66;98496.77;107979;1263;59655;-69
2022/11/27 09:34:41;;;;;;;44.70;29.80;;;;;;;5.01;84.06;98497.73;107735;1266;71745;-68
2022/11/27 09:37:10;;;;;;;43.20;30.30;;;;;;;5.17;84.66;98499.27;107821;1266;68271;-68
2022/11/27 09:39:39;;;;;;;43.60;28.00;;;;;;;5.34;84.94;98493.35;107814;1266;68757;-69
2022/11/27 09:42:18;;;;;;;44.40;30.20;;;;;;;5.58;85.27;98488.71;107933;1266;59694;-69
2022/11/27 09:44:56;;;;;;;41.80;27.50;;;;;;;5.63;82.24;98483.84;107840;1266;59768;-69
2022/11/27 09:48:00;;;;;;;44.30;28.20;;;;;;;5.66;83.13;98483.91;107713;1263;71375;-70
2022/11/27 09:50:35;;;;;;;48.20;29.60;;;;;;;6.00;82.60;98478.39;107392;1268;69501;-69
2022/11/27 09:53:14;;;;;;;47.10;31.70;;;;;;;6.11;82.45;98476.23;107773;1263;69769;-69
2022/11/27 09:55:47;;;;;;;52.50;33.70;;;;;;;6.13;80.89;98471.98;107697;1266;59721;-69
2022/11/27 09:58:58;;;;;;;52.90;36.10;;;;;;;6.05;80.24;98468.33;107897;1266;59694;-70
2022/11/27 10:01:30;;;;;;;59.40;41.10;;;;;;;5.67;79.61;98467.98;108538;1266;71362;-69
2022/11/27 10:04:13;;;;;;;58.90;39.30;;;;;;;5.52;80.93;98461.07;107833;1264;68519;-69
2022/11/27 10:07:23;;;;;;;59.10;38.20;;;;;;;5.16;81.28;98459.39;107881;1266;69886;-69
2022/11/27 10:09:55;;;;;;;55.20;38.10;;;;;;;4.91;83.08;98456.10;107876;1266;59665;-70
2022/11/27 10:12:47;;;;;;;54.40;35.30;;;;;;;4.81;83.47;98459.86;107753;1266;59649;-70
2022/11/27 10:15:36;;;;;;;56.10;36.30;;;;;;;4.76;84.16;98456.25;107933;1266;71360;-69
2022/11/27 10:18:42;;;;;;;57.50;37.70;;;;;;;4.88;84.10;98453.10;107770;1268;69327;-70
2022/11/27 10:21:22;;;;;;;59.40;39.30;;;;;;;4.86;84.34;98453.33;107686;1264;69308;-69
2022/11/27 10:24:35;;;;;;;55.80;35.60;;;;;;;5.12;83.00;98451.59;107690;1266;59814;-70
2022/11/27 10:27:24;;;;;;;48.00;33.00;;;;;;;5.28;82.28;98451.02;107696;1266;59702;-69
2022/11/27 10:29:56;;;;;;;48.80;34.10;;;;;;;5.37;81.64;98452.81;107790;1263;71883;-69
2022/11/27 10:32:29;;;;;;;49.30;33.60;;;;;;;5.43;81.23;98450.48;107734;1266;68328;-69
2022/11/27 10:35:22;;;;;;;93.20;56.90;;;;;;;5.57;81.31;98450.69;107840;1266;69836;-70
2022/11/27 10:38:08;;;;;;;48.20;31.60;;;;;;;5.78;80.81;98448.04;107826;1262;59755;-70
2022/11/27 10:40:51;;;;;;;47.70;30.70;;;;;;;5.99;80.00;98442.77;107780;1266;59685;-70
2022/11/27 10:43:23;;;;;;;49.00;32.60;;;;;;;6.13;78.47;98440.14;107737;1262;71996;-69
2022/11/27 10:45:57;;;;;;;52.80;38.40;;;;;;;6.04;77.27;98443.45;107694;1266;69021;-69
2022/11/27 10:48:28;;;;;;;41.70;28.70;;;;;;;5.98;77.39;98441.08;107934;1265;69664;-69
2022/11/27 10:50:58;;;;;;;46.90;31.60;;;;;;;5.81;77.31;98437.02;107887;1262;59829;-70
2022/11/27 10:53:34;;;;;;;;;;;;;;;5.81;77.21;98436.83;107819;1262;59718;-70
2022/11/27 10:56:15;;;;;;;48.90;32.50;;;;;;;5.74;77.68;98438.32;107729;1262;71207;-70
2022/11/27 10:58:53;;;;;;;45.50;30.80;;;;;;;5.86;77.71;98439.42;107815;1266;69805;-69
2022/11/27 11:01:25;;;;;;;52.90;34.40;;;;;;;5.84;77.31;98438.63;107866;1266;67766;-70
2022/11/27 11:04:09;;;;;;;49.00;33.40;;;;;;;5.77;77.40;98433.91;107761;1266;59759;-69
2022/11/27 11:06:58;;;;;;;47.90;34.50;;;;;;;5.66;77.45;98437.41;108607;1263;59660;-69
2022/11/27 11:09:33;;;;;;;44.30;30.50;;;;;;;5.59;77.55;98434.70;107899;1259;70752;-69
2022/11/27 11:12:16;;;;;;;51.80;36.10;;;;;;;5.54;77.93;98432.46;107943;1262;69358;-70
2022/11/27 11:14:53;;;;;;;51.80;33.30;;;;;;;5.63;78.30;98431.95;107804;1266;69085;-69
2022/11/27 11:17:26;;;;;;;46.70;31.90;;;;;;;5.90;78.24;98433.91;107753;1266;59782;-70
2022/11/27 11:19:55;;;;;;;47.20;31.50;;;;;;;6.05;76.29;98430.59;107661;1262;59719;-70
2022/11/27 11:22:26;;;;;;;49.10;33.80;;;;;;;6.15;75.39;98427.11;107963;1263;71355;-69
2022/11/27 11:24:55;;;;;;;45.60;31.50;;;;;;;6.28;74.52;98426.79;107887;1266;69030;-69
2022/11/27 11:27:29;;;;;;;42.80;30.60;;;;;;;6.43;74.51;98423.05;107749;1266;69374;-69
2022/11/27 11:30:01;;;;;;;41.80;31.00;;;;;;;6.42;73.90;98418.23;107887;1263;59684;-69
2022/11/27 11:32:32;;;;;;;38.50;25.40;;;;;;;6.66;73.93;98416.74;107764;1261;59756;-69
2022/11/27 11:35:07;;;;;;;39.60;26.80;;;;;;;7.08;70.49;98407.52;107895;1266;70618;-70
2022/11/27 11:37:45;;;;;;;35.50;24.20;;;;;;;7.81;68.28;98408.64;107794;1266;69012;-70
2022/11/27 11:40:13;;;;;;;38.10;26.90;;;;;;;8.69;67.36;98406.22;107832;1266;69084;-69
2022/11/27 11:43:40;;;;;;;38.40;27.40;;;;;;;9.35;66.27;98403.04;107696;1263;59728;-68